createdAt,value
2023-04-18T00:00:21.820Z,59.11
2023-04-18T00:05:47.292Z,69.32
2023-04-18T00:10:50.217Z,61.24
2023-04-18T00:15:54.219Z,53.80
2023-04-18T00:20:56.991Z,55.73
2023-04-18T00:26:00.012Z,56.59
2023-04-18T00:31:03.546Z,58.64
2023-04-18T00:36:06.627Z,69.28
2023-04-18T00:41:09.416Z,62.98
2023-04-18T00:46:12.175Z,54.17
2023-04-18T00:51:15.692Z,54.97
2023-04-18T00:56:19.340Z,56.32
2023-04-18T01:01:22.237Z,59.03
2023-04-18T01:06:27.528Z,69.60
2023-04-18T01:11:30.476Z,63.11
2023-04-18T01:16:34.658Z,54.28
2023-04-18T01:22:00.548Z,54.98
2023-04-18T01:27:03.485Z,56.58
2023-04-18T01:32:07.067Z,58.44
2023-04-18T01:37:09.781Z,69.10
2023-04-18T01:42:12.526Z,63.00
2023-04-18T01:47:15.251Z,54.71
2023-04-18T01:52:18.271Z,56.06
2023-04-18T01:57:21.114Z,57.25
2023-04-18T02:02:24.021Z,58.87
2023-04-18T02:07:26.997Z,69.77
2023-04-18T02:12:29.703Z,63.51
2023-04-18T02:17:32.425Z,54.73
2023-04-18T02:22:38.234Z,56.39
2023-04-18T02:27:41.262Z,58.12
2023-04-18T02:32:44.080Z,59.59
2023-04-18T02:37:46.908Z,69.65
2023-04-18T02:42:49.609Z,63.11
2023-04-18T02:47:55.856Z,54.66
2023-04-18T02:53:00.157Z,55.61
2023-04-18T02:58:03.330Z,57.28
2023-04-18T03:03:06.227Z,59.37
2023-04-18T03:08:09.268Z,69.82
2023-04-18T03:13:12.154Z,63.62
2023-04-18T03:18:14.915Z,54.96
2023-04-18T03:23:17.661Z,55.83
2023-04-18T03:28:20.473Z,58.07
2023-04-18T03:33:23.957Z,67.40
2023-04-18T03:38:26.782Z,62.25
2023-04-18T03:43:29.528Z,54.38
2023-04-18T03:48:35.856Z,55.71
2023-04-18T03:53:38.653Z,58.05
2023-04-18T03:58:41.372Z,59.51
2023-04-18T04:03:44.278Z,70.08
2023-04-18T04:08:47.124Z,63.84
2023-04-18T04:13:49.955Z,54.94
2023-04-18T04:18:52.753Z,55.95
2023-04-18T04:23:55.479Z,58.42
2023-04-18T04:28:58.389Z,59.50
2023-04-18T04:34:01.784Z,70.13
2023-04-18T04:39:05.378Z,63.50
2023-04-18T04:44:10.362Z,55.26
2023-04-18T04:49:13.109Z,57.11
2023-04-18T04:54:16.302Z,58.50
2023-04-18T04:59:19.618Z,67.87
2023-04-18T05:04:22.495Z,62.67
2023-04-18T05:09:26.180Z,55.13
2023-04-18T05:14:28.893Z,56.80
2023-04-18T05:19:31.590Z,58.40
2023-04-18T05:24:34.258Z,60.18
2023-04-18T05:29:36.920Z,70.38
2023-04-18T05:34:39.646Z,63.26
2023-04-18T05:39:42.484Z,55.32
2023-04-18T05:44:45.162Z,56.28
2023-04-18T05:49:47.868Z,58.68
2023-04-18T05:54:51.181Z,66.94
2023-04-18T05:59:54.113Z,58.78
2023-04-18T06:04:57.564Z,54.00
2023-04-18T06:10:00.545Z,56.28
2023-04-18T06:15:05.278Z,59.44
2023-04-18T06:20:10.056Z,68.54
2023-04-18T06:25:12.871Z,59.73
2023-04-18T06:30:15.799Z,54.06
2023-04-18T06:35:18.752Z,57.44
2023-04-18T06:40:21.538Z,60.00
2023-04-18T06:45:24.616Z,67.19
2023-04-18T06:50:30.664Z,58.85
2023-04-18T06:55:33.943Z,52.73
2023-04-18T07:00:42.079Z,54.06
2023-04-18T07:05:50.967Z,55.58
2023-04-18T07:10:53.840Z,56.76
2023-04-18T07:15:56.835Z,59.76
2023-04-18T07:20:59.534Z,62.68
2023-04-18T07:26:03.178Z,50.47
2023-04-18T07:31:09.112Z,53.16
2023-04-18T07:36:12.317Z,53.68
2023-04-18T07:41:15.717Z,54.78
2023-04-18T07:46:19.011Z,56.49
2023-04-18T07:51:22.203Z,57.72
2023-04-18T07:56:25.976Z,59.18
2023-04-18T08:01:28.737Z,61.46
2023-04-18T08:06:31.535Z,63.99
2023-04-18T08:11:35.186Z,53.31
2023-04-18T08:16:39.536Z,53.96
2023-04-18T08:21:42.217Z,54.44
2023-04-18T08:26:45.114Z,54.78
2023-04-18T08:31:50.525Z,56.26
2023-04-18T08:37:04.674Z,56.18
2023-04-18T08:42:24.531Z,57.72
2023-04-18T08:47:31.402Z,56.43
2023-04-18T08:52:36.173Z,56.09
2023-04-18T08:57:39.879Z,55.06
2023-04-18T09:02:43.118Z,55.98
2023-04-18T09:07:50.464Z,55.45
2023-04-18T09:12:53.223Z,54.08
2023-04-18T09:17:58.821Z,53.23
2023-04-18T09:23:04.385Z,53.97
2023-04-18T09:28:24.037Z,53.04
2023-04-18T09:33:35.293Z,53.01
2023-04-18T09:38:41.235Z,52.06
2023-04-18T09:43:48.207Z,51.48
2023-04-18T09:48:54.129Z,50.83
2023-04-18T09:53:59.733Z,49.82
2023-04-18T09:59:10.310Z,49.09
2023-04-18T10:04:17.621Z,48.31
2023-04-18T10:09:21.225Z,47.30
2023-04-18T10:14:25.039Z,46.62
2023-04-18T10:19:30.044Z,46.25
2023-04-18T10:24:54.266Z,46.31
2023-04-18T10:29:57.107Z,45.51
2023-04-18T10:35:00.700Z,44.17
2023-04-18T10:40:06.976Z,44.97
2023-04-18T10:45:19.843Z,44.21
2023-04-18T10:50:24.057Z,44.97
2023-04-18T10:55:29.373Z,44.64
2023-04-18T11:00:32.631Z,44.88
2023-04-18T11:05:35.683Z,44.59
2023-04-18T11:10:38.929Z,44.08
2023-04-18T11:15:41.764Z,43.07
2023-04-18T11:20:49.703Z,42.78
2023-04-18T11:25:56.476Z,42.48
2023-04-18T11:31:02.904Z,42.14
2023-04-18T11:36:06.965Z,41.69
2023-04-18T11:41:16.410Z,41.60
2023-04-18T11:46:19.253Z,41.77
2023-04-18T11:51:35.869Z,41.94
2023-04-18T11:56:48.433Z,41.91
2023-04-18T12:02:15.499Z,42.37
2023-04-18T12:07:42.469Z,42.36
2023-04-18T12:12:50.242Z,42.76
2023-04-18T12:17:58.496Z,42.64
2023-04-18T12:23:02.443Z,42.57
2023-04-18T12:28:15.830Z,42.97
2023-04-18T12:33:19.553Z,42.69
2023-04-18T12:38:23.718Z,42.91
2023-04-18T12:43:29.733Z,43.20
2023-04-18T12:48:32.530Z,43.93
2023-04-18T12:53:35.239Z,44.30
2023-04-18T12:58:37.991Z,43.89
2023-04-18T13:03:41.329Z,44.08
2023-04-18T13:08:45.270Z,44.09
2023-04-18T13:13:48.001Z,43.38
2023-04-18T13:18:51.015Z,42.54
2023-04-18T13:23:53.938Z,41.98
2023-04-18T13:28:57.783Z,42.27
2023-04-18T13:34:00.718Z,42.85
2023-04-18T13:39:05.205Z,43.49
2023-04-18T13:44:08.724Z,44.08
2023-04-18T13:49:11.589Z,44.61
2023-04-18T13:54:16.504Z,45.11
2023-04-18T13:59:19.587Z,45.84
2023-04-18T14:04:22.893Z,46.54
2023-04-18T14:09:26.929Z,47.04
2023-04-18T14:14:29.973Z,47.82
2023-04-18T14:19:33.185Z,48.34
2023-04-18T14:24:36.526Z,49.04
2023-04-18T14:29:39.328Z,49.14
2023-04-18T14:34:42.852Z,49.34
2023-04-18T14:39:46.213Z,49.08
2023-04-18T14:44:48.931Z,49.28
2023-04-18T14:49:51.737Z,49.66
2023-04-18T14:54:54.469Z,49.95
2023-04-18T14:59:57.300Z,50.33
2023-04-18T15:05:00.534Z,50.50
2023-04-18T15:10:05.017Z,50.65
2023-04-18T15:15:08.159Z,50.97
2023-04-18T15:20:11.310Z,51.09
2023-04-18T15:25:16.528Z,51.38
2023-04-18T15:30:20.025Z,51.74
2023-04-18T15:35:23.094Z,51.99
2023-04-18T15:40:26.298Z,52.35
2023-04-18T15:45:29.025Z,52.71
2023-04-18T15:50:33.534Z,53.16
2023-04-18T15:55:36.613Z,53.55
2023-04-18T16:00:40.011Z,53.86
2023-04-18T16:05:43.032Z,53.96
2023-04-18T16:10:46.245Z,54.26
2023-04-18T16:15:49.093Z,54.76
2023-04-18T16:20:52.211Z,54.90
2023-04-18T16:25:59.745Z,55.25
2023-04-18T16:31:02.470Z,55.61
2023-04-18T16:36:09.019Z,55.88
2023-04-18T16:41:12.246Z,56.22
2023-04-18T16:46:15.608Z,56.61
2023-04-18T16:51:18.557Z,56.84
2023-04-18T16:56:21.355Z,57.31
2023-04-18T17:01:24.184Z,57.62
2023-04-18T17:06:27.333Z,58.03
2023-04-18T17:11:32.261Z,58.38
2023-04-18T17:16:41.474Z,58.87
2023-04-18T17:21:45.461Z,59.03
2023-04-18T17:26:49.026Z,59.11
2023-04-18T17:31:54.001Z,59.07
2023-04-18T17:36:56.963Z,59.13
2023-04-18T17:42:01.076Z,59.54
2023-04-18T17:47:03.814Z,59.59
2023-04-18T17:52:06.721Z,59.74
2023-04-18T17:57:09.560Z,59.99
2023-04-18T18:02:12.357Z,60.11
2023-04-18T18:07:15.679Z,60.42
2023-04-18T18:12:20.845Z,60.60
2023-04-18T18:17:23.813Z,60.77
2023-04-18T18:22:27.006Z,60.84
2023-04-18T18:27:29.962Z,61.07
2023-04-18T18:32:32.915Z,61.27
2023-04-18T18:37:35.752Z,61.46
2023-04-18T18:42:39.031Z,61.62
2023-04-18T18:47:42.051Z,61.70
2023-04-18T18:52:45.186Z,61.82
2023-04-18T18:57:47.889Z,61.94
2023-04-18T19:02:50.730Z,70.69
2023-04-18T19:07:53.500Z,63.54
2023-04-18T19:12:56.594Z,51.44
2023-04-18T19:18:00.587Z,51.17
2023-04-18T19:23:04.505Z,52.42
2023-04-18T19:28:07.286Z,53.57
2023-04-18T19:33:10.554Z,55.11
2023-04-18T19:38:17.208Z,57.11
2023-04-18T19:43:20.044Z,57.76
2023-04-18T19:48:22.779Z,58.77
2023-04-18T19:53:26.324Z,59.49
2023-04-18T19:58:34.171Z,59.54
2023-04-18T20:03:37.079Z,58.91
2023-04-18T20:08:47.403Z,59.13
2023-04-18T20:13:52.272Z,59.21
2023-04-18T20:18:57.228Z,59.76
2023-04-18T20:24:00.027Z,60.05
2023-04-18T20:29:04.321Z,60.47
2023-04-18T20:34:07.428Z,60.72
2023-04-18T20:39:10.239Z,60.75
2023-04-18T20:44:13.842Z,61.23
2023-04-18T20:49:16.836Z,61.44
2023-04-18T20:54:19.794Z,61.59
2023-04-18T20:59:22.527Z,61.57
2023-04-18T21:04:25.379Z,61.61
2023-04-18T21:09:28.212Z,61.76
2023-04-18T21:14:31.490Z,69.32
2023-04-18T21:19:34.735Z,66.81
2023-04-18T21:24:39.034Z,51.45
2023-04-18T21:29:42.359Z,49.71
2023-04-18T21:34:45.025Z,51.96
2023-04-18T21:40:09.571Z,54.11
2023-04-18T21:45:12.418Z,55.11
2023-04-18T21:50:16.103Z,58.45
2023-04-18T21:55:18.911Z,58.72
2023-04-18T22:00:21.767Z,60.09
2023-04-18T22:05:26.353Z,60.45
2023-04-18T22:10:29.106Z,61.05
2023-04-18T22:15:32.408Z,61.43
2023-04-18T22:20:38.973Z,69.69
2023-04-18T22:25:41.911Z,61.40
2023-04-18T22:30:45.947Z,50.47
2023-04-18T22:35:49.096Z,51.19
2023-04-18T22:40:51.925Z,53.54
2023-04-18T22:45:54.700Z,55.37
2023-04-18T22:50:57.432Z,57.58
2023-04-18T22:56:00.152Z,59.31
2023-04-18T23:01:03.156Z,60.49
2023-04-18T23:06:08.097Z,61.34
2023-04-18T23:11:11.221Z,68.74
2023-04-18T23:16:14.020Z,63.87
2023-04-18T23:21:17.482Z,51.07
2023-04-18T23:26:21.054Z,49.91
2023-04-18T23:31:23.912Z,53.08
2023-04-18T23:36:27.337Z,55.10
2023-04-18T23:41:30.085Z,57.26
2023-04-18T23:46:34.384Z,59.32
2023-04-18T23:51:39.108Z,60.24
2023-04-18T23:56:41.793Z,61.39
